Time;durP1;ratioP1;P1;durP2;ratioP2;P2;SDS_P1;SDS_P2;PMS_P1;PMS_P2;Temp;Humidity;BMP_temperature;BMP_pressure;BME280_temperature;BME280_humidity;BME280_pressure;Samples;Min_cycle;Max_cycle;Signal;HPM_P1;HPM_P2
2022/09/01 00:01:41;;;;;;;0.10;0.10;;;;;;;;;;4139947;28;20058;-38
2022/09/01 00:03:42;;;;;;;0.10;0.10;;;;;;;;;;4129784;28;20140;-39
2022/09/01 00:05:45;;;;;;;0.10;0.10;;;;;;;;;;4129898;28;20057;-38
2022/09/01 00:07:47;;;;;;;0.15;0.10;;;;;;;;;;4129706;28;20058;-38
2022/09/01 00:09:50;;;;;;;0.00;0.00;;;;;;;;;;4130105;28;20054;-38
2022/09/01 00:11:53;;;;;;;0.08;0.08;;;;;;;;;;4129579;28;20509;-38
2022/09/01 00:13:56;;;;;;;0.00;0.00;;;;;;;;;;4127690;28;20054;-39
2022/09/01 00:15:59;;;;;;;0.10;0.10;;;;;;;;;;4129396;28;20536;-38
2022/09/01 00:18:01;;;;;;;0.10;0.10;;;;;;;;;;4130089;28;20364;-38
2022/09/01 00:20:04;;;;;;;0.05;0.05;;;;;;;;;;4129898;28;20062;-38
2022/09/01 00:22:05;;;;;;;0.43;0.10;;;;;;;;;;4129823;28;20489;-38
2022/09/01 00:24:08;;;;;;;0.65;0.10;;;;;;;;;;4129714;28;20066;-38
2022/09/01 00:26:09;;;;;;;0.13;0.10;;;;;;;;;;4127930;28;20417;-38
2022/09/01 00:28:10;;;;;;;0.10;0.00;;;;;;;;;;4129192;28;20065;-38
2022/09/01 00:30:12;;;;;;;0.00;0.00;;;;;;;;;;4145497;28;20460;-38
2022/09/01 00:32:14;;;;;;;0.10;0.10;;;;;;;;;;4145751;28;20559;-38
2022/09/01 00:34:16;;;;;;;0.15;0.00;;;;;;;;;;4145904;28;20115;-38
2022/09/01 00:36:18;;;;;;;0.00;0.00;;;;;;;;;;4145630;28;20434;-38
2022/09/01 00:38:20;;;;;;;0.00;0.00;;;;;;;;;;4145481;28;20053;-38
2022/09/01 00:40:21;;;;;;;0.10;0.10;;;;;;;;;;4144408;28;20564;-38
2022/09/01 00:42:23;;;;;;;0.70;0.10;;;;;;;;;;4145249;28;20058;-39
2022/09/01 00:44:26;;;;;;;0.00;0.00;;;;;;;;;;4144586;28;20053;-38
2022/09/01 00:46:36;;;;;;;0.20;0.08;;;;;;;;;;4144548;28;20101;-39
2022/09/01 00:48:37;;;;;;;;;;;;;;;;;;4146030;28;20080;-38
2022/09/01 00:50:38;;;;;;;0.00;0.00;;;;;;;;;;4145013;28;19979;-38
2022/09/01 00:52:51;;;;;;;0.10;0.10;;;;;;;;;;4144900;28;20498;-38
2022/09/01 00:54:56;;;;;;;0.03;0.03;;;;;;;;;;4145435;28;20520;-37
2022/09/01 00:56:58;;;;;;;0.08;0.08;;;;;;;;;;4127993;28;20310;-37
2022/09/01 00:59:00;;;;;;;0.20;0.10;;;;;;;;;;4143745;28;20115;-37
2022/09/01 01:01:02;;;;;;;0.10;0.10;;;;;;;;;;4127338;28;20073;-37
2022/09/01 01:03:04;;;;;;;0.10;0.10;;;;;;;;;;4145066;28;20061;-38
2022/09/01 01:05:05;;;;;;;0.00;0.00;;;;;;;;;;4127721;28;20120;-37
2022/09/01 01:07:08;;;;;;;0.05;0.00;;;;;;;;;;4160467;28;20084;-37
2022/09/01 01:09:10;;;;;;;0.20;0.10;;;;;;;;;;4130936;28;20103;-37
2022/09/01 01:11:16;;;;;;;0.30;0.10;;;;;;;;;;4129823;28;20210;-37
2022/09/01 01:13:19;;;;;;;0.10;0.10;;;;;;;;;;4130457;28;20104;-37
2022/09/01 01:15:21;;;;;;;0.10;0.10;;;;;;;;;;4145820;28;20054;-37
2022/09/01 01:17:23;;;;;;;0.10;0.10;;;;;;;;;;4131109;28;20109;-37
2022/09/01 01:24:28;;;;;;;0.65;0.30;;;;;;;;;;4143744;28;20061;-37
2022/09/01 01:26:29;;;;;;;0.20;0.10;;;;;;;;;;4145840;28;20077;-37
2022/09/01 01:28:34;;;;;;;0.10;0.10;;;;;;;;;;4145348;28;20054;-37
2022/09/01 01:30:38;;;;;;;0.10;0.10;;;;;;;;;;4145765;28;20081;-37
2022/09/01 01:32:42;;;;;;;0.68;0.10;;;;;;;;;;4129754;28;20058;-37
2022/09/01 01:34:45;;;;;;;0.08;0.08;;;;;;;;;;4145637;28;20049;-37
2022/09/01 01:36:48;;;;;;;0.20;0.10;;;;;;;;;;4129401;28;20054;-37
2022/09/01 01:38:50;;;;;;;0.00;0.00;;;;;;;;;;4145406;28;20062;-37
2022/09/01 01:40:52;;;;;;;0.00;0.00;;;;;;;;;;4129460;28;20046;-37
2022/09/01 01:42:56;;;;;;;0.10;0.10;;;;;;;;;;4145415;28;20109;-37
2022/09/01 01:44:59;;;;;;;0.03;0.03;;;;;;;;;;4130693;28;20046;-37
2022/09/01 01:47:03;;;;;;;0.00;0.00;;;;;;;;;;4145681;28;20608;-37
2022/09/01 01:49:04;;;;;;;0.00;0.00;;;;;;;;;;4130552;28;20101;-38
2022/09/01 01:51:07;;;;;;;0.10;0.10;;;;;;;;;;4161066;28;20057;-37
2022/09/01 01:53:12;;;;;;;0.60;0.10;;;;;;;;;;4145420;28;20049;-37
2022/09/01 01:55:18;;;;;;;0.10;0.00;;;;;;;;;;4145571;28;20054;-37
2022/09/01 01:57:19;;;;;;;0.00;0.00;;;;;;;;;;4145482;28;20061;-37
2022/09/01 01:59:23;;;;;;;0.10;0.10;;;;;;;;;;4145602;28;20070;-37
2022/09/01 02:01:27;;;;;;;0.10;0.10;;;;;;;;;;4146837;28;20107;-37
2022/09/01 02:03:37;;;;;;;0.00;0.00;;;;;;;;;;4146188;28;20050;-37
2022/09/01 02:05:39;;;;;;;0.38;0.10;;;;;;;;;;4148567;28;20054;-37
2022/09/01 02:07:41;;;;;;;0.00;0.00;;;;;;;;;;4148405;28;20054;-37
2022/09/01 02:09:46;;;;;;;0.20;0.10;;;;;;;;;;4148717;28;20129;-37
2022/09/01 02:11:55;;;;;;;0.15;0.10;;;;;;;;;;4149885;28;20049;-37
2022/09/01 02:13:57;;;;;;;0.05;0.05;;;;;;;;;;4148047;28;20054;-37
2022/09/01 02:16:02;;;;;;;0.10;0.10;;;;;;;;;;4149805;28;20054;-37
2022/09/01 02:18:04;;;;;;;0.00;0.00;;;;;;;;;;4148120;28;20417;-37
2022/09/01 02:20:06;;;;;;;0.10;0.10;;;;;;;;;;4148746;28;20054;-37
2022/09/01 02:22:09;;;;;;;0.10;0.10;;;;;;;;;;4148149;28;20097;-37
2022/09/01 02:24:11;;;;;;;0.10;0.10;;;;;;;;;;4149571;28;20061;-37
2022/09/01 02:26:15;;;;;;;0.13;0.00;;;;;;;;;;4148365;28;20120;-37
2022/09/01 02:28:17;;;;;;;0.10;0.10;;;;;;;;;;4148952;28;20481;-37
2022/09/01 02:30:18;;;;;;;0.00;0.00;;;;;;;;;;4148150;28;20433;-37
2022/09/01 02:32:20;;;;;;;0.10;0.05;;;;;;;;;;4148118;28;20484;-37
2022/09/01 02:34:26;;;;;;;0.13;0.10;;;;;;;;;;4148365;28;20065;-37
2022/09/01 02:36:31;;;;;;;0.10;0.00;;;;;;;;;;4149121;28;20089;-37
2022/09/01 02:38:33;;;;;;;0.17;0.17;;;;;;;;;;4149486;28;20064;-37
2022/09/01 02:40:34;;;;;;;0.03;0.00;;;;;;;;;;4148202;28;20103;-38
2022/09/01 02:42:39;;;;;;;0.00;0.00;;;;;;;;;;4147466;28;20061;-37
2022/09/01 02:44:42;;;;;;;0.10;0.00;;;;;;;;;;4148073;28;20053;-37
2022/09/01 02:46:45;;;;;;;0.03;0.03;;;;;;;;;;4147856;28;20062;-37
2022/09/01 02:48:50;;;;;;;0.40;0.10;;;;;;;;;;4147738;28;20054;-37
2022/09/01 02:50:52;;;;;;;0.10;0.10;;;;;;;;;;4147789;28;20088;-38
2022/09/01 02:52:53;;;;;;;0.10;0.10;;;;;;;;;;4148030;28;20096;-38
2022/09/01 02:54:58;;;;;;;0.20;0.10;;;;;;;;;;4149018;28;20050;-38
2022/09/01 02:56:59;;;;;;;0.10;0.10;;;;;;;;;;4148160;28;20050;-38
2022/09/01 02:59:02;;;;;;;0.75;0.10;;;;;;;;;;4147556;28;20054;-38
2022/09/01 03:01:03;;;;;;;0.00;0.00;;;;;;;;;;4137303;28;20156;-38
2022/09/01 03:03:06;;;;;;;0.10;0.10;;;;;;;;;;4132579;28;20104;-38
2022/09/01 03:05:08;;;;;;;0.10;0.10;;;;;;;;;;4131555;28;20133;-39
2022/09/01 03:07:12;;;;;;;0.10;0.10;;;;;;;;;;4131941;28;20109;-38
2022/09/01 03:09:16;;;;;;;0.10;0.10;;;;;;;;;;4130785;28;20062;-38
2022/09/01 03:11:17;;;;;;;0.13;0.13;;;;;;;;;;4131325;28;20051;-38
2022/09/01 03:13:22;;;;;;;0.00;0.00;;;;;;;;;;4131112;28;20058;-38
2022/09/01 03:15:23;;;;;;;0.10;0.10;;;;;;;;;;4130832;28;20058;-38
2022/09/01 03:17:25;;;;;;;0.00;0.00;;;;;;;;;;4131220;28;20058;-38
2022/09/01 03:19:26;;;;;;;0.20;0.10;;;;;;;;;;4132771;28;20110;-38
2022/09/01 03:21:30;;;;;;;0.10;0.10;;;;;;;;;;4115340;28;20145;-38
2022/09/01 03:23:32;;;;;;;0.00;0.00;;;;;;;;;;4131151;28;20085;-38
2022/09/01 03:25:35;;;;;;;0.13;0.10;;;;;;;;;;4131274;28;20046;-38
2022/09/01 03:27:37;;;;;;;0.00;0.00;;;;;;;;;;4130892;28;20117;-38
2022/09/01 03:29:38;;;;;;;0.13;0.10;;;;;;;;;;4131130;28;20481;-38
2022/09/01 03:31:41;;;;;;;0.22;0.17;;;;;;;;;;4115348;28;20081;-38
2022/09/01 03:33:42;;;;;;;0.00;0.00;;;;;;;;;;4131036;28;20117;-38
2022/09/01 03:35:52;;;;;;;0.10;0.00;;;;;;;;;;4130968;28;20105;-38
2022/09/01 03:37:57;;;;;;;0.25;0.10;;;;;;;;;;4131075;28;20061;-38
2022/09/01 03:39:59;;;;;;;0.17;0.10;;;;;;;;;;4131174;28;20113;-38
2022/09/01 03:42:01;;;;;;;0.15;0.10;;;;;;;;;;4132457;28;20112;-38
2022/09/01 03:44:02;;;;;;;0.10;0.10;;;;;;;;;;4131579;28;20113;-38
2022/09/01 03:46:08;;;;;;;0.10;0.10;;;;;;;;;;4130915;28;20054;-38
2022/09/01 03:48:09;;;;;;;0.10;0.10;;;;;;;;;;4130666;28;20050;-38
2022/09/01 03:50:19;;;;;;;0.10;0.10;;;;;;;;;;4138681;28;20401;-38
2022/09/01 03:52:26;;;;;;;0.40;0.10;;;;;;;;;;4147070;28;20130;-38
2022/09/01 03:54:29;;;;;;;0.10;0.10;;;;;;;;;;4146932;28;20116;-38
2022/09/01 03:56:30;;;;;;;0.00;0.00;;;;;;;;;;4148278;28;20050;-38
2022/09/01 03:58:32;;;;;;;0.13;0.13;;;;;;;;;;4146268;28;20058;-38
2022/09/01 04:00:37;;;;;;;0.10;0.10;;;;;;;;;;4147007;28;20115;-38
2022/09/01 04:02:39;;;;;;;0.43;0.10;;;;;;;;;;4146494;28;20587;-38
2022/09/01 04:04:41;;;;;;;0.17;0.10;;;;;;;;;;4146469;28;20069;-38
2022/09/01 04:06:44;;;;;;;0.20;0.10;;;;;;;;;;4146784;28;20439;-38
2022/09/01 04:08:45;;;;;;;0.13;0.13;;;;;;;;;;4146593;28;20119;-38
2022/09/01 04:10:50;;;;;;;0.10;0.10;;;;;;;;;;4147716;28;20054;-38
2022/09/01 04:12:55;;;;;;;0.10;0.10;;;;;;;;;;4145723;28;20057;-38
2022/09/01 04:14:56;;;;;;;0.35;0.10;;;;;;;;;;4146469;28;20219;-38
2022/09/01 04:19:24;;;;;;;;;;;;;;;;;;4146809;28;20124;-38
2022/09/01 04:21:26;;;;;;;0.10;0.10;;;;;;;;;;4146477;28;20428;-38
2022/09/01 04:23:30;;;;;;;0.20;0.20;;;;;;;;;;4146291;28;20592;-38
2022/09/01 04:25:37;;;;;;;0.47;0.10;;;;;;;;;;4147528;28;20153;-38
2022/09/01 04:27:39;;;;;;;0.10;0.10;;;;;;;;;;4146830;28;20054;-38
2022/09/01 04:29:41;;;;;;;0.20;0.17;;;;;;;;;;4134410;28;20058;-38
2022/09/01 04:31:44;;;;;;;0.28;0.20;;;;;;;;;;4130050;28;20398;-38
2022/09/01 04:33:51;;;;;;;0.32;0.10;;;;;;;;;;4129838;28;20109;-38
2022/09/01 04:35:55;;;;;;;0.13;0.03;;;;;;;;;;4114153;28;20569;-38
2022/09/01 04:38:00;;;;;;;0.20;0.10;;;;;;;;;;4130097;28;20054;-38
2022/09/01 04:40:03;;;;;;;0.10;0.10;;;;;;;;;;4130185;28;20482;-39
2022/09/01 04:42:07;;;;;;;0.10;0.10;;;;;;;;;;4129730;28;20109;-38
2022/09/01 04:44:09;;;;;;;0.10;0.10;;;;;;;;;;4129547;28;20065;-38
2022/09/01 04:46:14;;;;;;;0.30;0.10;;;;;;;;;;4129879;28;20120;-38
2022/09/01 04:48:15;;;;;;;0.10;0.10;;;;;;;;;;4131158;28;20131;-38
2022/09/01 04:50:17;;;;;;;0.10;0.10;;;;;;;;;;4131254;28;20104;-38
2022/09/01 04:52:33;;;;;;;0.10;0.10;;;;;;;;;;4130975;28;20058;-38
2022/09/01 04:54:37;;;;;;;0.05;0.03;;;;;;;;;;4129893;28;20391;-38
2022/09/01 04:56:40;;;;;;;0.10;0.10;;;;;;;;;;4129607;28;20108;-39
2022/09/01 04:58:54;;;;;;;0.10;0.10;;;;;;;;;;4129339;28;20173;-38
2022/09/01 05:00:55;;;;;;;0.35;0.10;;;;;;;;;;4136869;28;20100;-38
2022/09/01 05:03:03;;;;;;;0.10;0.08;;;;;;;;;;4143760;28;20063;-38
2022/09/01 05:05:11;;;;;;;0.05;0.05;;;;;;;;;;4144032;28;20104;-38
2022/09/01 05:07:15;;;;;;;0.20;0.20;;;;;;;;;;4145436;28;20111;-38
2022/09/01 05:09:17;;;;;;;0.10;0.10;;;;;;;;;;4143850;28;20100;-41
2022/09/01 05:11:26;;;;;;;0.30;0.20;;;;;;;;;;4138602;28;20505;-38
2022/09/01 05:13:38;;;;;;;1.08;0.10;;;;;;;;;;4141582;28;20112;-37
2022/09/01 05:15:45;;;;;;;0.10;0.10;;;;;;;;;;4142263;28;20054;-37
2022/09/01 05:17:46;;;;;;;0.10;0.10;;;;;;;;;;4141394;28;20049;-37
2022/09/01 05:19:49;;;;;;;0.38;0.20;;;;;;;;;;4136668;28;20057;-37
2022/09/01 05:21:53;;;;;;;0.08;0.08;;;;;;;;;;4142028;28;20060;-38
2022/09/01 05:23:57;;;;;;;0.10;0.10;;;;;;;;;;4142999;28;20148;-38
2022/09/01 05:26:05;;;;;;;0.15;0.10;;;;;;;;;;4142991;28;20108;-38
2022/09/01 05:28:08;;;;;;;1.05;0.10;;;;;;;;;;4139295;28;20139;-38
2022/09/01 05:30:11;;;;;;;0.10;0.10;;;;;;;;;;4141973;28;20088;-38
2022/09/01 05:32:12;;;;;;;0.22;0.20;;;;;;;;;;4138389;28;20058;-38
2022/09/01 05:34:18;;;;;;;0.10;0.10;;;;;;;;;;4138338;28;20108;-38
2022/09/01 05:36:22;;;;;;;0.20;0.10;;;;;;;;;;4135899;28;20087;-38
2022/09/01 05:38:25;;;;;;;0.13;0.10;;;;;;;;;;4140041;28;20069;-38
2022/09/01 05:40:26;;;;;;;0.10;0.10;;;;;;;;;;4141501;28;20086;-38
2022/09/01 05:42:29;;;;;;;0.10;0.10;;;;;;;;;;4122001;28;20552;-38
2022/09/01 05:44:30;;;;;;;0.00;0.00;;;;;;;;;;4136528;28;20099;-38
2022/09/01 05:46:32;;;;;;;0.10;0.10;;;;;;;;;;4139327;28;20493;-38
2022/09/01 05:48:38;;;;;;;0.15;0.10;;;;;;;;;;4139119;28;20053;-38
2022/09/01 05:50:41;;;;;;;0.80;0.30;;;;;;;;;;4133700;28;20053;-38
2022/09/01 05:52:46;;;;;;;0.57;0.10;;;;;;;;;;4141072;28;20054;-38
2022/09/01 05:54:47;;;;;;;0.20;0.10;;;;;;;;;;4135172;28;20486;-38
2022/09/01 05:56:49;;;;;;;0.10;0.10;;;;;;;;;;4134408;28;20123;-38
2022/09/01 05:58:56;;;;;;;0.10;0.10;;;;;;;;;;4136129;28;20140;-38
2022/09/01 06:00:58;;;;;;;0.10;0.10;;;;;;;;;;4135844;28;20081;-39
2022/09/01 06:03:03;;;;;;;0.43;0.10;;;;;;;;;;4129778;28;21712;-38
2022/09/01 06:05:06;;;;;;;0.13;0.13;;;;;;;;;;4128118;28;20065;-38
2022/09/01 06:07:08;;;;;;;0.25;0.20;;;;;;;;;;4126318;28;20050;-39
2022/09/01 06:09:13;;;;;;;0.20;0.20;;;;;;;;;;4121226;28;20128;-38
2022/09/01 06:11:16;;;;;;;0.10;0.10;;;;;;;;;;4130744;28;20492;-38
2022/09/01 06:13:20;;;;;;;0.85;0.20;;;;;;;;;;4116260;28;20112;-38
2022/09/01 06:15:21;;;;;;;0.13;0.10;;;;;;;;;;4135490;28;20100;-38
2022/09/01 06:17:29;;;;;;;0.13;0.10;;;;;;;;;;4134771;28;20062;-39
2022/09/01 06:19:34;;;;;;;0.40;0.20;;;;;;;;;;4129764;28;20458;-39
2022/09/01 06:21:40;;;;;;;0.10;0.10;;;;;;;;;;4135665;28;20053;-38
2022/09/01 06:23:43;;;;;;;0.93;0.10;;;;;;;;;;4149258;28;20057;-39
2022/09/01 06:25:45;;;;;;;0.28;0.10;;;;;;;;;;4132929;28;20084;-38
2022/09/01 06:27:51;;;;;;;0.13;0.10;;;;;;;;;;4138757;28;20578;-38
2022/09/01 06:29:53;;;;;;;1.02;0.10;;;;;;;;;;4128012;28;20695;-39
2022/09/01 06:31:56;;;;;;;0.20;0.10;;;;;;;;;;4129273;28;20848;-38
2022/09/01 06:33:58;;;;;;;3.70;0.63;;;;;;;;;;4118289;28;20951;-39
2022/09/01 06:36:02;;;;;;;4.05;0.15;;;;;;;;;;4110600;28;20532;-39
2022/09/01 06:38:05;;;;;;;0.93;0.20;;;;;;;;;;4121304;28;20050;-39
2022/09/01 06:40:18;;;;;;;0.45;0.13;;;;;;;;;;4120759;28;20904;-39
2022/09/01 06:42:21;;;;;;;0.70;0.20;;;;;;;;;;4121001;28;20552;-39
2022/09/01 06:44:30;;;;;;;2.10;0.20;;;;;;;;;;4131159;28;20576;-39
2022/09/01 06:46:40;;;;;;;1.00;0.15;;;;;;;;;;4120102;28;20169;-39
2022/09/01 06:48:45;;;;;;;0.20;0.10;;;;;;;;;;4131956;28;20096;-40
2022/09/01 06:50:46;;;;;;;0.20;0.08;;;;;;;;;;4116241;28;21147;-39
2022/09/01 06:52:49;;;;;;;0.13;0.10;;;;;;;;;;4115397;28;20065;-39
2022/09/01 06:54:53;;;;;;;1.85;0.20;;;;;;;;;;4120992;28;20149;-39
2022/09/01 06:56:55;;;;;;;1.25;0.22;;;;;;;;;;4118340;28;20488;-39
2022/09/01 06:58:57;;;;;;;2.92;0.28;;;;;;;;;;4113491;28;20096;-39
2022/09/01 07:01:06;;;;;;;4.20;0.30;;;;;;;;;;4102312;28;20171;-39
2022/09/01 07:03:10;;;;;;;1.73;0.20;;;;;;;;;;4106789;28;20067;-39
2022/09/01 07:05:20;;;;;;;0.35;0.22;;;;;;;;;;4097905;28;20583;-39
2022/09/01 07:07:22;;;;;;;2.50;0.17;;;;;;;;;;4116382;28;20053;-39
2022/09/01 07:09:42;;;;;;;0.38;0.20;;;;;;;;;;4105607;28;20694;-39
2022/09/01 07:12:07;;;;;;;2.78;0.40;;;;;;;;;;4108092;28;20057;-39
2022/09/01 07:14:08;;;;;;;1.00;0.10;;;;;;;;;;4108993;28;20068;-39
2022/09/01 07:16:21;;;;;;;0.85;0.10;;;;;;;;;;4126736;28;20057;-39
2022/09/01 07:18:24;;;;;;;0.93;0.20;;;;;;;;;;4118909;28;20139;-41
2022/09/01 07:20:28;;;;;;;0.80;0.20;;;;;;;;;;4098895;28;20058;-44
2022/09/01 07:22:30;;;;;;;0.13;0.13;;;;;;;;;;4094097;28;20132;-41
2022/09/01 07:24:34;;;;;;;0.90;0.10;;;;;;;;;;4103709;28;20109;-43
2022/09/01 07:26:54;;;;;;;1.58;0.10;;;;;;;;;;4108082;28;20742;-41
2022/09/01 07:28:56;;;;;;;0.47;0.30;;;;;;;;;;4104236;28;20155;-44
2022/09/01 07:30:58;;;;;;;0.65;0.20;;;;;;;;;;4105601;28;20505;-41
2022/09/01 07:33:01;;;;;;;1.17;0.10;;;;;;;;;;4109777;28;20124;-39
2022/09/01 07:35:06;;;;;;;2.97;0.75;;;;;;;;;;4114562;28;20129;-39
2022/09/01 07:37:07;;;;;;;0.30;0.10;;;;;;;;;;4094589;28;20148;-39
2022/09/01 07:39:12;;;;;;;3.28;0.20;;;;;;;;;;4129255;28;20058;-39
2022/09/01 07:41:15;;;;;;;1.27;0.20;;;;;;;;;;4112905;28;20163;-40
2022/09/01 07:43:36;;;;;;;2.05;0.47;;;;;;;;;;4105983;28;20105;-39
2022/09/01 07:45:58;;;;;;;2.75;0.20;;;;;;;;;;4113411;28;20601;-40
2022/09/01 07:48:02;;;;;;;0.30;0.10;;;;;;;;;;4101604;28;20184;-41
2022/09/01 07:50:07;;;;;;;1.92;0.20;;;;;;;;;;4103768;28;20054;-39
2022/09/01 07:52:08;;;;;;;2.28;0.30;;;;;;;;;;4108625;28;21380;-40
2022/09/01 07:54:12;;;;;;;0.30;0.10;;;;;;;;;;4108437;28;20129;-39
2022/09/01 07:56:17;;;;;;;1.48;0.20;;;;;;;;;;4103648;28;20112;-44
2022/09/01 07:58:24;;;;;;;0.28;0.20;;;;;;;;;;4109727;28;20053;-44
2022/09/01 08:00:33;;;;;;;3.13;0.20;;;;;;;;;;4112539;28;20091;-42
2022/09/01 08:02:39;;;;;;;4.03;0.20;;;;;;;;;;4109310;28;20147;-40
2022/09/01 08:04:41;;;;;;;0.82;0.20;;;;;;;;;;4128754;28;20131;-43
2022/09/01 08:06:42;;;;;;;3.47;0.20;;;;;;;;;;4123862;28;20641;-43
2022/09/01 08:08:44;;;;;;;1.88;0.20;;;;;;;;;;4119360;28;20563;-42
2022/09/01 08:10:47;;;;;;;0.32;0.10;;;;;;;;;;4117754;28;20706;-44
2022/09/01 08:12:49;;;;;;;0.60;0.20;;;;;;;;;;4115742;28;20592;-49
2022/09/01 08:14:52;;;;;;;2.22;0.45;;;;;;;;;;4118856;28;20050;-44
2022/09/01 08:16:53;;;;;;;1.92;0.25;;;;;;;;;;4112218;28;20061;-44
2022/09/01 08:18:55;;;;;;;0.15;0.10;;;;;;;;;;4109141;28;20065;-44
2022/09/01 08:21:15;;;;;;;1.42;0.40;;;;;;;;;;4108464;28;20054;-46
2022/09/01 08:23:36;;;;;;;0.55;0.17;;;;;;;;;;4108045;28;20057;-48
2022/09/01 08:25:39;;;;;;;0.30;0.10;;;;;;;;;;4113759;28;20050;-46
2022/09/01 08:27:41;;;;;;;1.17;0.30;;;;;;;;;;4117187;28;20072;-45
2022/09/01 08:29:42;;;;;;;4.07;0.20;;;;;;;;;;4115924;28;20069;-43
2022/09/01 08:31:46;;;;;;;0.82;0.22;;;;;;;;;;4112606;28;20057;-44
2022/09/01 08:33:48;;;;;;;1.58;0.20;;;;;;;;;;4109966;28;20065;-46
2022/09/01 08:35:49;;;;;;;1.30;0.30;;;;;;;;;;4116105;28;20088;-43
2022/09/01 08:37:53;;;;;;;0.70;0.22;;;;;;;;;;4110509;28;20058;-44
2022/09/01 08:39:54;;;;;;;0.77;0.30;;;;;;;;;;4112007;28;20063;-44
2022/09/01 08:42:09;;;;;;;0.98;0.20;;;;;;;;;;4108771;28;20548;-44
2022/09/01 08:44:40;;;;;;;0.43;0.10;;;;;;;;;;4096194;28;20054;-43
2022/09/01 08:46:42;;;;;;;2.35;0.20;;;;;;;;;;4109831;28;20618;-43
2022/09/01 08:49:03;;;;;;;2.13;0.20;;;;;;;;;;4106358;28;20092;-42
2022/09/01 08:51:38;;;;;;;2.20;0.20;;;;;;;;;;4093809;28;20404;-43
2022/09/01 08:53:47;;;;;;;1.95;0.38;;;;;;;;;;4114724;28;20100;-43
2022/09/01 08:55:51;;;;;;;1.13;0.20;;;;;;;;;;4102176;28;20143;-43
2022/09/01 08:57:56;;;;;;;2.85;0.25;;;;;;;;;;4108628;28;20126;-43
2022/09/01 08:59:57;;;;;;;0.55;0.22;;;;;;;;;;4112137;28;21815;-43
2022/09/01 09:02:13;;;;;;;0.80;0.10;;;;;;;;;;4107252;28;20067;-41
2022/09/01 09:04:29;;;;;;;1.38;0.65;;;;;;;;;;4112450;28;20053;-39
2022/09/01 09:06:40;;;;;;;1.55;0.28;;;;;;;;;;4110668;28;20347;-39
2022/09/01 09:09:01;;;;;;;4.13;0.30;;;;;;;;;;4099779;28;20107;-43
2022/09/01 09:11:10;;;;;;;1.25;0.40;;;;;;;;;;4107767;28;20136;-42
2022/09/01 09:13:48;;;;;;;2.08;0.20;;;;;;;;;;4116118;28;20061;-43
2022/09/01 09:15:55;;;;;;;1.95;0.57;;;;;;;;;;4109166;28;20617;-43
2022/09/01 09:18:23;;;;;;;3.38;0.30;;;;;;;;;;4100547;28;20128;-40
2022/09/01 09:20:27;;;;;;;1.65;0.30;;;;;;;;;;4112323;28;20112;-42
2022/09/01 09:22:28;;;;;;;0.80;0.30;;;;;;;;;;4111786;28;21607;-42
2022/09/01 09:24:49;;;;;;;2.35;0.40;;;;;;;;;;4112042;28;20069;-43
2022/09/01 09:26:57;;;;;;;5.22;0.50;;;;;;;;;;4112464;28;20140;-42
2022/09/01 09:28:58;;;;;;;0.65;0.40;;;;;;;;;;4116454;28;20179;-42
2022/09/01 09:31:29;;;;;;;2.10;0.50;;;;;;;;;;4102056;28;20123;-42
2022/09/01 09:33:36;;;;;;;2.85;0.50;;;;;;;;;;4105147;28;20054;-41
2022/09/01 09:36:15;;;;;;;1.60;0.93;;;;;;;;;;4111846;28;20463;-42
2022/09/01 09:38:22;;;;;;;4.65;0.20;;;;;;;;;;4099234;28;20062;-41
2022/09/01 09:40:26;;;;;;;0.45;0.20;;;;;;;;;;4109694;28;20057;-42
2022/09/01 09:42:27;;;;;;;3.20;0.20;;;;;;;;;;4112481;28;20480;-43
2022/09/01 09:44:31;;;;;;;1.08;0.38;;;;;;;;;;4109193;28;20058;-46
2022/09/01 09:46:38;;;;;;;5.15;0.20;;;;;;;;;;4122197;28;20058;-45
2022/09/01 09:48:39;;;;;;;0.40;0.20;;;;;;;;;;4120343;28;20621;-45
2022/09/01 09:50:42;;;;;;;3.95;0.22;;;;;;;;;;4122677;28;20217;-45
2022/09/01 09:52:45;;;;;;;3.25;0.70;;;;;;;;;;4117466;28;20058;-44
2022/09/01 09:55:20;;;;;;;0.60;0.35;;;;;;;;;;4121365;28;20513;-44
2022/09/01 09:57:21;;;;;;;4.47;0.57;;;;;;;;;;4110676;28;20054;-45
2022/09/01 09:59:31;;;;;;;0.50;0.20;;;;;;;;;;4112857;28;20050;-45
2022/09/01 10:01:32;;;;;;;4.10;0.25;;;;;;;;;;4120483;28;20313;-45
2022/09/01 10:03:35;;;;;;;3.78;0.32;;;;;;;;;;4112601;28;20069;-44
2022/09/01 10:05:41;;;;;;;4.55;0.35;;;;;;;;;;4126377;28;20061;-44
2022/09/01 10:07:42;;;;;;;0.10;0.00;;;;;;;;;;4119765;28;20049;-45
2022/09/01 10:09:43;;;;;;;0.85;0.20;;;;;;;;;;4117362;28;20139;-44
2022/09/01 10:11:56;;;;;;;1.40;0.13;;;;;;;;;;4117813;28;20128;-45
2022/09/01 10:13:57;;;;;;;0.85;0.10;;;;;;;;;;4119470;28;20112;-41
2022/09/01 10:16:01;;;;;;;0.95;0.17;;;;;;;;;;4117631;28;20068;-40
2022/09/01 10:18:13;;;;;;;0.43;0.20;;;;;;;;;;4125277;28;20057;-41
2022/09/01 10:20:21;;;;;;;1.55;0.13;;;;;;;;;;4122317;28;20694;-40
2022/09/01 10:22:22;;;;;;;1.80;0.17;;;;;;;;;;4128562;28;20058;-40
2022/09/01 10:24:35;;;;;;;2.20;0.20;;;;;;;;;;4125979;28;20470;-40
2022/09/01 10:26:38;;;;;;;0.30;0.20;;;;;;;;;;4143704;28;20123;-41
2022/09/01 10:28:55;;;;;;;0.93;0.50;;;;;;;;;;4141857;28;20060;-42
2022/09/01 10:30:57;;;;;;;1.13;0.30;;;;;;;;;;4134200;28;20423;-40
2022/09/01 10:33:00;;;;;;;1.30;0.20;;;;;;;;;;4101767;28;20062;-46
2022/09/01 10:35:03;;;;;;;0.65;0.10;;;;;;;;;;4122109;28;20462;-39
2022/09/01 10:37:07;;;;;;;0.15;0.10;;;;;;;;;;4119540;28;20181;-41
2022/09/01 10:39:17;;;;;;;1.35;0.20;;;;;;;;;;4115065;28;20483;-41
2022/09/01 10:41:51;;;;;;;2.20;0.10;;;;;;;;;;4112644;28;20379;-39
2022/09/01 10:43:52;;;;;;;0.63;0.20;;;;;;;;;;4123057;28;20565;-39
2022/09/01 10:45:54;;;;;;;1.67;0.20;;;;;;;;;;4097647;28;20682;-44
2022/09/01 10:48:18;;;;;;;0.30;0.20;;;;;;;;;;4132961;28;20104;-44
2022/09/01 10:50:27;;;;;;;1.42;0.17;;;;;;;;;;4114301;28;20109;-46
2022/09/01 10:52:40;;;;;;;3.50;0.20;;;;;;;;;;4110440;28;20148;-42
2022/09/01 10:54:41;;;;;;;1.10;0.10;;;;;;;;;;4115399;28;21096;-42
2022/09/01 10:56:47;;;;;;;1.70;0.10;;;;;;;;;;4105274;28;21936;-42
2022/09/01 10:59:23;;;;;;;1.13;0.20;;;;;;;;;;4105162;28;20053;-42
2022/09/01 11:01:47;;;;;;;1.00;0.38;;;;;;;;;;4117191;28;20061;-40
2022/09/01 11:03:51;;;;;;;0.63;0.10;;;;;;;;;;4119086;28;20062;-39
2022/09/01 11:05:52;;;;;;;1.95;0.10;;;;;;;;;;4114567;28;20081;-42
2022/09/01 11:07:54;;;;;;;0.75;0.25;;;;;;;;;;4116000;28;20793;-41
2022/09/01 11:10:10;;;;;;;2.08;0.20;;;;;;;;;;4123306;28;20111;-41
2022/09/01 11:12:36;;;;;;;0.88;0.15;;;;;;;;;;4115141;28;20104;-42
2022/09/01 11:14:48;;;;;;;0.30;0.10;;;;;;;;;;4118821;28;20058;-42
2022/09/01 11:17:12;;;;;;;0.90;0.20;;;;;;;;;;4114546;28;20108;-41
2022/09/01 11:19:23;;;;;;;0.52;0.15;;;;;;;;;;4128739;28;20151;-42
2022/09/01 11:21:27;;;;;;;1.65;0.13;;;;;;;;;;4133741;28;21432;-45
2022/09/01 11:23:30;;;;;;;2.03;0.25;;;;;;;;;;4116298;28;20061;-50
2022/09/01 11:25:51;;;;;;;1.48;0.20;;;;;;;;;;4116537;28;20148;-44
2022/09/01 11:27:52;;;;;;;1.58;0.30;;;;;;;;;;4134853;28;20135;-54
2022/09/01 11:29:54;;;;;;;0.85;0.20;;;;;;;;;;4117156;28;20066;-51
2022/09/01 11:31:56;;;;;;;1.25;0.20;;;;;;;;;;4116090;28;20053;-53
2022/09/01 11:33:57;;;;;;;1.85;0.20;;;;;;;;;;4113994;28;20050;-55
2022/09/01 11:36:05;;;;;;;0.30;0.20;;;;;;;;;;4115280;28;20061;-54
2022/09/01 11:38:08;;;;;;;2.75;0.30;;;;;;;;;;4109855;28;20443;-56
2022/09/01 11:40:09;;;;;;;1.55;0.35;;;;;;;;;;4115686;28;20159;-52
2022/09/01 11:42:20;;;;;;;0.43;0.20;;;;;;;;;;4120662;28;20050;-54
2022/09/01 11:44:31;;;;;;;0.35;0.20;;;;;;;;;;4120336;28;20128;-54
2022/09/01 11:46:34;;;;;;;1.75;0.10;;;;;;;;;;4110780;28;20061;-57
2022/09/01 11:48:36;;;;;;;2.40;0.20;;;;;;;;;;4117774;28;20461;-48
2022/09/01 11:50:40;;;;;;;0.65;0.10;;;;;;;;;;4115793;28;20058;-45
2022/09/01 11:52:42;;;;;;;0.60;0.13;;;;;;;;;;4117041;28;20148;-46
2022/09/01 11:54:46;;;;;;;0.25;0.10;;;;;;;;;;4118456;28;20343;-44
2022/09/01 11:56:48;;;;;;;0.17;0.10;;;;;;;;;;4119833;28;20719;-46
2022/09/01 11:58:49;;;;;;;0.73;0.20;;;;;;;;;;4116772;28;20159;-47
2022/09/01 12:00:50;;;;;;;1.13;0.20;;;;;;;;;;4116149;28;20054;-44
2022/09/01 12:02:53;;;;;;;0.80;0.20;;;;;;;;;;4112197;28;20240;-47
2022/09/01 12:04:56;;;;;;;0.85;0.10;;;;;;;;;;4118524;28;20062;-48
2022/09/01 12:07:01;;;;;;;1.90;0.20;;;;;;;;;;4123302;28;20089;-46
2022/09/01 12:09:03;;;;;;;2.30;0.10;;;;;;;;;;4115674;28;20109;-43
2022/09/01 12:11:10;;;;;;;1.58;0.20;;;;;;;;;;4116886;28;20057;-49
2022/09/01 12:13:20;;;;;;;2.63;0.10;;;;;;;;;;4116031;28;20093;-44
2022/09/01 12:15:24;;;;;;;0.63;0.30;;;;;;;;;;4119198;28;22331;-45
2022/09/01 12:17:25;;;;;;;0.43;0.20;;;;;;;;;;4118949;28;20058;-46
2022/09/01 12:19:30;;;;;;;0.65;0.20;;;;;;;;;;4114388;28;20053;-46
2022/09/01 12:21:41;;;;;;;1.65;0.10;;;;;;;;;;4115572;28;20331;-47
2022/09/01 12:23:44;;;;;;;1.80;0.20;;;;;;;;;;4118792;28;20642;-44
2022/09/01 12:25:45;;;;;;;1.15;0.20;;;;;;;;;;4121870;28;20080;-46
2022/09/01 12:27:46;;;;;;;0.88;0.10;;;;;;;;;;4111840;28;20441;-48
2022/09/01 12:29:49;;;;;;;0.73;0.15;;;;;;;;;;4118252;28;20065;-47
2022/09/01 12:31:52;;;;;;;3.90;0.32;;;;;;;;;;4117225;28;20062;-48
2022/09/01 12:33:55;;;;;;;9.45;0.20;;;;;;;;;;4134686;28;20116;-46
2022/09/01 12:36:18;;;;;;;1.08;0.45;;;;;;;;;;4121407;28;20101;-45
2022/09/01 12:38:19;;;;;;;4.68;0.13;;;;;;;;;;4117873;28;20057;-46
2022/09/01 12:40:24;;;;;;;1.00;0.20;;;;;;;;;;4113243;28;20169;-45